Time;durP1;ratioP1;P1;durP2;ratioP2;P2;SDS_P1;SDS_P2;PMS_P1;PMS_P2;Temp;Humidity;BMP_temperature;BMP_pressure;BME280_temperature;BME280_humidity;BME280_pressure;Samples;Min_cycle;Max_cycle;Signal;HPM_P1;HPM_P2
2021/08/14 00:01:40;;;;;;;33.95;9.57;;;20.40;99.90;;;20.95;73.58;102030.19;5072926;28;20075;-70
2021/08/14 00:04:10;;;;;;;26.77;8.38;;;20.40;99.90;;;20.90;73.61;102021.38;5073221;28;20044;-70
2021/08/14 00:06:39;;;;;;;24.70;8.43;;;20.40;99.90;;;20.97;73.55;102036.41;5072812;28;20490;-71
2021/08/14 00:09:07;;;;;;;24.63;9.23;;;20.50;99.90;;;20.94;73.45;102028.44;5073136;28;20044;-72
2021/08/14 00:11:35;;;;;;;27.42;8.93;;;20.50;99.90;;;21.01;73.41;102044.38;5072766;28;20101;-70
2021/08/14 00:14:04;;;;;;;22.17;8.18;;;20.50;99.90;;;20.97;73.58;102049.84;5072857;28;20398;-70
2021/08/14 00:16:32;;;;;;;26.77;8.82;;;20.50;99.90;;;20.96;73.44;102042.72;5055234;28;20133;-70
2021/08/14 00:19:01;;;;;;;27.35;9.60;;;20.50;99.90;;;20.95;73.44;102047.22;5073029;28;20049;-70
2021/08/14 00:21:33;;;;;;;22.95;9.45;;;20.50;99.90;;;20.97;73.44;102041.78;5072689;28;20064;-71
2021/08/14 00:24:01;;;;;;;25.85;9.43;;;20.50;99.90;;;20.95;73.52;102043.63;5054947;28;20062;-70
2021/08/14 00:26:30;;;;;;;23.88;8.40;;;20.40;99.90;;;20.93;73.40;102030.22;5072704;28;20052;-71
2021/08/14 00:28:58;;;;;;;28.75;9.05;;;20.40;99.90;;;20.89;73.57;102028.56;5054950;28;20072;-70
2021/08/14 00:31:27;;;;;;;23.83;8.40;;;20.40;99.90;;;20.76;73.54;102002.03;5072587;28;20040;-70
2021/08/14 00:33:55;;;;;;;22.83;8.88;;;20.40;99.90;;;20.87;73.52;102018.75;5072813;28;20038;-70
2021/08/14 00:36:24;;;;;;;24.65;9.00;;;20.40;99.90;;;20.82;73.47;102009.94;5055082;28;20216;-70
2021/08/14 00:38:54;;;;;;;24.02;9.27;;;20.40;99.90;;;20.82;73.62;102023.38;5072389;28;20037;-70
2021/08/14 00:41:24;;;;;;;25.15;8.63;;;20.40;99.90;;;20.86;73.74;102030.44;5072867;28;20050;-70
2021/08/14 00:43:52;;;;;;;28.20;9.98;;;20.40;99.90;;;20.86;73.83;102035.84;5073743;28;20144;-70
2021/08/14 00:46:21;;;;;;;25.63;8.38;;;20.40;99.90;;;20.89;73.79;102033.94;5076211;28;20399;-70
2021/08/14 00:48:51;;;;;;;24.70;8.35;;;20.40;99.90;;;20.90;73.82;102029.44;5076101;28;20050;-70
2021/08/14 00:51:19;;;;;;;26.03;8.50;;;20.40;99.90;;;20.88;73.97;102025.91;5076355;28;20074;-70
2021/08/14 00:53:48;;;;;;;24.40;8.23;;;20.40;99.90;;;20.73;73.78;101994.06;5076125;28;20036;-71
2021/08/14 00:56:21;;;;;;;18.63;8.13;;;20.40;99.90;;;20.78;73.88;102000.19;5076601;28;20123;-70
2021/08/14 00:58:52;;;;;;;26.02;8.57;;;20.40;99.90;;;20.92;74.05;102035.66;5075812;28;20123;-69
2021/08/14 01:01:22;;;;;;;24.00;8.88;;;20.40;99.90;;;20.93;74.13;102029.34;5076216;28;20045;-70
2021/08/14 01:03:52;;;;;;;27.60;9.05;;;20.40;99.90;;;20.89;74.19;102022.28;5076121;28;20426;-69
2021/08/14 01:06:22;;;;;;;27.03;9.13;;;20.40;99.90;;;20.90;74.31;102016.00;5076346;28;20043;-71
2021/08/14 01:08:52;;;;;;;27.65;8.98;;;20.40;99.90;;;20.87;74.57;102021.44;5075855;28;20457;-69
2021/08/14 01:11:22;;;;;;;26.83;9.52;;;20.40;99.90;;;20.90;74.57;102022.25;5075812;28;20102;-70
2021/08/14 01:13:51;;;;;;;25.25;9.30;;;20.40;99.90;;;20.92;74.62;102028.47;5075833;28;20387;-70
2021/08/14 01:16:20;;;;;;;24.73;9.32;;;20.40;99.90;;;20.76;74.65;102010.09;5075720;28;20374;-69
2021/08/14 01:18:49;;;;;;;26.17;8.30;;;20.40;99.90;;;20.93;74.59;102021.28;5075859;28;20391;-69
2021/08/14 01:21:20;;;;;;;22.50;8.48;;;20.40;99.90;;;20.90;74.84;102024.06;5075532;28;20453;-70
2021/08/14 01:23:50;;;;;;;20.88;8.52;;;20.40;99.90;;;20.87;74.98;102014.25;5075865;28;20044;-69
2021/08/14 01:26:21;;;;;;;23.65;8.40;;;20.40;99.90;;;20.88;75.01;102020.53;5075569;28;20051;-69
2021/08/14 01:28:52;;;;;;;24.20;9.05;;;20.40;99.90;;;20.89;74.96;102012.41;5075773;28;20440;-70
2021/08/14 01:31:21;;;;;;;25.38;8.98;;;20.40;99.90;;;20.85;75.25;102008.03;5075490;28;20049;-69
2021/08/14 01:33:49;;;;;;;25.38;8.57;;;20.40;99.90;;;20.87;75.28;102006.19;5075658;28;20041;-69
2021/08/14 01:36:18;;;;;;;21.30;7.85;;;20.40;99.90;;;20.89;75.28;102000.75;5075864;28;20055;-69
2021/08/14 01:38:50;;;;;;;22.02;8.90;;;20.40;99.90;;;20.91;75.26;101999.78;5075778;28;20045;-69
2021/08/14 01:41:19;;;;;;;21.25;8.68;;;20.40;99.90;;;19.92;75.07;101825.22;5075344;28;20036;-70
2021/08/14 01:43:59;;;;;;;19.95;8.75;;;20.40;99.90;;;20.82;75.16;101992.00;5075117;28;20049;-70
2021/08/14 01:46:31;;;;;;;25.45;8.82;;;20.40;99.90;;;20.85;75.27;101988.34;5075597;28;20122;-69
2021/08/14 01:49:00;;;;;;;26.38;9.13;;;20.40;99.90;;;20.89;75.35;101992.69;5075288;28;20161;-69
2021/08/14 01:51:30;;;;;;;26.92;9.13;;;20.40;99.90;;;20.76;75.42;101975.16;5075247;28;20046;-69
2021/08/14 01:54:04;;;;;;;24.33;8.90;;;20.40;99.90;;;20.88;75.37;101985.56;5075087;28;20398;-70
2021/08/14 01:56:33;;;;;;;24.63;8.95;;;20.40;99.90;;;20.80;75.23;101974.13;5074441;28;20507;-70
2021/08/14 01:59:04;;;;;;;24.87;8.77;;;20.40;99.90;;;20.70;75.52;101965.44;5074921;28;20040;-70
2021/08/14 02:01:33;;;;;;;25.63;8.88;;;20.40;99.90;;;20.87;75.56;101989.16;5075199;28;20298;-70
2021/08/14 02:04:02;;;;;;;28.30;8.90;;;20.40;99.90;;;20.89;75.57;101985.50;5075040;28;20083;-70
2021/08/14 02:06:31;;;;;;;27.15;8.95;;;20.40;99.90;;;20.75;75.54;101962.63;5074763;28;20044;-70
2021/08/14 02:09:00;;;;;;;27.67;8.75;;;20.40;99.90;;;20.79;75.72;101970.56;5075176;28;20048;-70
2021/08/14 02:11:33;;;;;;;24.83;9.40;;;20.40;99.90;;;20.98;75.97;101973.59;5074615;28;20044;-70
2021/08/14 02:14:05;;;;;;;21.27;8.55;;;20.50;99.90;;;20.84;75.84;101965.06;5074579;28;20486;-68
2021/08/14 02:16:34;;;;;;;22.55;8.52;;;20.50;99.90;;;20.94;75.65;101983.59;5075012;28;20052;-67
2021/08/14 02:19:03;;;;;;;26.85;9.15;;;20.50;99.90;;;20.47;75.56;101951.78;5074512;28;20040;-68
2021/08/14 02:21:32;;;;;;;25.55;9.23;;;20.40;99.90;;;20.83;75.61;101960.63;5056577;28;20040;-68
2021/08/14 02:24:01;;;;;;;25.85;8.50;;;20.40;99.90;;;20.92;75.68;101969.28;5074620;28;20041;-68
2021/08/14 02:26:30;;;;;;;25.13;8.25;;;20.40;99.90;;;20.94;75.66;101966.56;5056616;28;20144;-68
2021/08/14 02:28:58;;;;;;;26.58;9.93;;;20.40;99.90;;;20.95;75.71;101969.19;5074744;28;20048;-68
2021/08/14 02:31:28;;;;;;;24.60;9.05;;;20.50;99.90;;;20.94;75.78;101966.56;5056480;28;20490;-69
2021/08/14 02:33:58;;;;;;;28.15;9.80;;;20.40;99.90;;;20.89;75.94;101968.47;5074232;28;20454;-69
2021/08/14 02:36:26;;;;;;;22.05;9.02;;;20.40;99.90;;;20.84;76.06;101968.63;5074144;28;20040;-69
2021/08/14 02:38:55;;;;;;;27.73;9.27;;;20.40;99.90;;;20.64;76.22;101952.19;5056159;28;20056;-69
2021/08/14 02:41:23;;;;;;;24.88;8.82;;;20.40;99.90;;;20.81;76.46;101963.31;5074156;28;20093;-69
2021/08/14 02:43:52;;;;;;;26.27;9.10;;;20.30;99.90;;;20.69;76.74;101969.94;5072868;28;20068;-69
2021/08/14 02:46:20;;;;;;;30.05;9.88;;;20.30;99.90;;;20.59;76.92;101944.25;5069386;28;20502;-69
2021/08/14 02:48:50;;;;;;;30.27;9.52;;;20.20;99.90;;;20.62;76.82;101945.97;5053820;28;20056;-69
2021/08/14 02:51:19;;;;;;;28.98;9.07;;;20.30;99.90;;;20.77;76.81;101969.72;5054008;28;20049;-69
2021/08/14 02:53:47;;;;;;;22.95;8.65;;;20.30;99.90;;;20.76;76.85;101962.59;5052796;28;20056;-69
2021/08/14 02:56:16;;;;;;;28.23;8.85;;;20.30;99.90;;;20.81;76.74;101968.69;5069524;28;20127;-69
2021/08/14 02:58:44;;;;;;;27.80;9.75;;;20.30;99.90;;;20.69;76.59;101934.97;5053963;28;20045;-69
2021/08/14 03:01:13;;;;;;;23.90;9.50;;;20.30;99.90;;;20.84;76.58;101965.94;5053996;28;20483;-70
2021/08/14 03:03:41;;;;;;;25.75;8.88;;;20.30;99.90;;;20.86;76.49;101973.97;5053675;28;20037;-68
2021/08/14 03:06:26;;;;;;;27.30;8.35;;;20.30;99.90;;;20.83;76.48;101960.63;5053594;28;20048;-69
2021/08/14 03:08:55;;;;;;;34.28;9.88;;;20.30;99.90;;;20.65;76.65;101944.06;5052845;28;20099;-69
2021/08/14 03:11:23;;;;;;;21.67;8.95;;;20.30;99.90;;;20.73;76.85;101956.41;5053591;28;20099;-69
2021/08/14 03:13:52;;;;;;;26.58;10.23;;;20.40;99.90;;;20.80;77.13;101972.34;5053537;28;20094;-69
2021/08/14 03:16:20;;;;;;;29.30;8.40;;;20.30;99.90;;;20.53;77.07;101952.50;5053422;28;20568;-69
2021/08/14 03:18:49;;;;;;;29.52;10.05;;;20.30;99.90;;;20.59;77.02;101948.75;5052399;28;20570;-69
2021/08/14 03:21:17;;;;;;;25.70;9.20;;;20.30;99.90;;;20.70;76.79;101965.44;5053566;28;20041;-69
2021/08/14 03:23:47;;;;;;;25.15;9.88;;;20.20;99.90;;;20.67;76.85;101958.34;5053301;28;20566;-68
2021/08/14 03:26:15;;;;;;;31.08;9.48;;;20.20;99.90;;;20.73;76.83;101965.34;5053286;28;20482;-69
2021/08/14 03:28:44;;;;;;;24.42;9.95;;;20.20;99.90;;;20.71;76.86;101969.03;5053508;28;20106;-69
2021/08/14 03:31:12;;;;;;;28.27;9.38;;;20.20;99.90;;;20.71;76.86;101963.66;5053277;28;20048;-69
2021/08/14 03:33:40;;;;;;;29.17;10.02;;;20.20;99.90;;;20.74;76.82;101968.94;5053447;28;20037;-69
2021/08/14 03:36:09;;;;;;;27.45;8.98;;;20.20;99.90;;;20.72;76.89;101960.03;5053436;28;20080;-69
2021/08/14 03:38:37;;;;;;;23.08;9.57;;;20.20;99.90;;;20.71;76.89;101955.59;5053117;28;20041;-69
2021/08/14 03:41:08;;;;;;;25.10;9.43;;;20.20;99.90;;;20.54;76.95;101934.53;5053037;28;20037;-69
2021/08/14 03:43:37;;;;;;;;;;;20.20;99.90;;;20.67;76.88;101955.66;5053603;28;20052;-69
2021/08/14 03:46:05;;;;;;;24.52;8.52;;;20.30;99.90;;;20.48;77.22;101926.63;5061098;28;19960;-69
2021/08/14 03:48:34;;;;;;;31.83;9.43;;;20.20;99.90;;;20.61;77.25;101945.06;5073217;28;20048;-69
2021/08/14 03:51:02;;;;;;;27.17;9.13;;;20.20;99.90;;;20.45;77.34;101934.81;5072984;28;20068;-69
2021/08/14 03:53:31;;;;;;;26.08;8.95;;;20.10;99.90;;;20.48;77.60;101943.66;5073050;28;20044;-69
2021/08/14 03:56:00;;;;;;;34.55;10.40;;;20.00;99.90;;;20.46;77.71;101945.50;5073004;28;20048;-69
2021/08/14 03:58:34;;;;;;;28.48;10.32;;;20.00;99.90;;;20.43;77.85;101945.59;5073470;28;20101;-69
2021/08/14 04:01:07;;;;;;;24.42;8.93;;;19.90;99.90;;;20.40;77.80;101945.66;5055188;28;20490;-69
2021/08/14 04:03:36;;;;;;;26.42;9.50;;;19.90;99.90;;;19.91;77.66;101861.94;5072830;28;20044;-69
2021/08/14 04:06:04;;;;;;;24.17;8.75;;;20.00;99.90;;;20.28;77.78;101961.28;5072911;28;20467;-69
2021/08/14 04:08:33;;;;;;;23.58;9.23;;;19.90;99.90;;;20.08;77.66;101907.13;5072935;28;20040;-69
2021/08/14 04:11:02;;;;;;;27.50;10.13;;;19.80;99.90;;;20.27;77.63;101957.69;5073098;28;20041;-69
2021/08/14 04:13:30;;;;;;;26.70;10.25;;;19.80;99.90;;;20.20;77.82;101950.72;5072779;28;20562;-68
2021/08/14 04:16:00;;;;;;;24.38;9.95;;;19.70;99.90;;;20.13;77.94;101953.59;5072889;28;20072;-69
2021/08/14 04:18:29;;;;;;;29.42;10.93;;;19.70;99.90;;;20.09;78.23;101951.91;5073321;28;20150;-69
2021/08/14 04:20:57;;;;;;;27.40;10.25;;;19.60;99.90;;;20.13;77.79;101943.69;5077045;28;20072;-69
2021/08/14 04:23:26;;;;;;;31.90;10.68;;;19.60;99.90;;;20.03;77.83;101950.25;5076610;28;20086;-69
2021/08/14 04:25:54;;;;;;;28.70;10.30;;;19.60;99.90;;;19.81;78.22;101949.03;5076617;28;20044;-69
2021/08/14 04:28:23;;;;;;;29.15;10.85;;;19.50;99.90;;;19.67;78.83;101953.84;5075548;28;20048;-68
2021/08/14 04:30:51;;;;;;;25.02;9.23;;;19.30;99.90;;;19.45;79.46;101947.25;5076832;28;20119;-68
2021/08/14 04:33:21;;;;;;;24.85;9.48;;;19.20;99.90;;;19.23;79.90;101903.00;5075456;28;20052;-69
2021/08/14 04:35:50;;;;;;;27.50;11.17;;;19.10;99.90;;;19.43;79.84;101944.63;5076583;28;20044;-69
2021/08/14 04:38:18;;;;;;;25.17;9.57;;;19.10;99.90;;;19.32;79.75;101929.59;5076573;28;20127;-68
2021/08/14 04:40:46;;;;;;;29.25;9.38;;;19.10;99.90;;;19.41;79.97;101938.41;5076380;28;20048;-69
2021/08/14 04:43:15;;;;;;;24.60;9.75;;;19.00;99.90;;;19.31;80.19;101947.53;5076448;28;20045;-69
2021/08/14 04:45:43;;;;;;;28.60;10.48;;;19.00;99.90;;;18.63;80.41;101831.09;5076410;28;20130;-68
2021/08/14 04:48:12;;;;;;;28.42;10.00;;;18.90;99.90;;;19.30;80.32;101943.06;5076454;28;20083;-68
2021/08/14 04:50:41;;;;;;;27.15;10.07;;;18.90;99.90;;;19.06;80.95;101922.19;5076383;28;20103;-69
2021/08/14 04:53:10;;;;;;;32.83;11.23;;;18.90;99.90;;;19.20;81.30;101940.66;5076124;28;20463;-70
2021/08/14 04:55:39;;;;;;;30.73;10.50;;;18.90;99.90;;;19.25;81.18;101936.94;5076140;28;20052;-70
2021/08/14 04:58:08;;;;;;;29.98;11.88;;;18.80;99.90;;;19.16;81.53;101934.47;5075993;28;20123;-69
2021/08/14 05:00:36;;;;;;;30.58;10.20;;;18.80;99.90;;;19.08;82.11;101925.72;5076275;28;20040;-69
2021/08/14 05:03:05;;;;;;;31.25;11.40;;;18.80;99.90;;;19.17;82.43;101932.66;5058071;28;20049;-69
2021/08/14 05:05:33;;;;;;;37.97;11.98;;;18.80;99.90;;;19.23;82.44;101929.84;5075828;28;20072;-69
2021/08/14 05:08:03;;;;;;;33.20;11.27;;;18.90;99.90;;;19.37;82.25;101942.06;5076332;28;20214;-70
2021/08/14 05:10:32;;;;;;;35.30;11.93;;;18.90;99.90;;;19.46;81.93;101947.22;5076599;28;20542;-70
2021/08/14 05:13:00;;;;;;;34.53;12.88;;;19.00;99.90;;;19.46;81.96;101943.63;5076015;28;20100;-70
2021/08/14 05:15:28;;;;;;;31.52;12.13;;;19.10;99.90;;;19.50;81.98;101945.31;5058269;28;20072;-70
2021/08/14 05:17:57;;;;;;;31.67;12.18;;;19.10;99.90;;;19.61;81.99;101949.53;5075885;28;20045;-70
2021/08/14 05:20:26;;;;;;;30.13;12.63;;;19.10;99.90;;;19.71;81.93;101945.69;5075773;28;20397;-70
2021/08/14 05:22:54;;;;;;;36.10;13.43;;;19.30;99.90;;;19.80;81.61;101947.28;5075832;28;20074;-70
2021/08/14 05:25:25;;;;;;;33.42;13.38;;;19.30;99.90;;;19.73;81.60;101933.13;5075551;28;20040;-70
2021/08/14 05:27:54;;;;;;;38.85;14.43;;;19.40;99.90;;;19.89;81.41;101952.41;5076309;28;20449;-70
2021/08/14 05:30:22;;;;;;;31.88;15.55;;;19.50;99.90;;;20.01;81.18;101965.53;5074363;28;20048;-70
2021/08/14 05:32:51;;;;;;;34.88;14.20;;;19.60;99.90;;;19.89;80.83;101933.59;5075339;28;20124;-69
2021/08/14 05:35:20;;;;;;;36.15;14.00;;;19.60;99.90;;;20.12;80.92;101973.31;5057755;28;20512;-70
2021/08/14 05:37:49;;;;;;;41.53;15.35;;;19.70;99.90;;;19.56;80.99;101875.41;5075847;28;20040;-70
2021/08/14 05:40:17;;;;;;;41.38;15.65;;;19.70;99.90;;;20.20;80.77;101964.16;5076273;28;20101;-70
2021/08/14 05:42:47;;;;;;;39.30;15.38;;;19.80;99.90;;;20.19;80.43;101956.16;5074956;28;20044;-70
2021/08/14 05:45:19;;;;;;;38.10;15.75;;;19.80;99.90;;;20.29;80.16;101958.53;5075284;28;20079;-69
2021/08/14 05:47:48;;;;;;;39.67;15.43;;;19.90;99.90;;;20.36;79.92;101959.25;5057111;28;20102;-70
2021/08/14 05:50:18;;;;;;;31.75;14.77;;;19.90;99.90;;;20.43;79.63;101961.75;5075030;28;20096;-70
2021/08/14 05:52:46;;;;;;;33.85;15.02;;;20.00;99.90;;;20.45;79.50;101962.56;5074721;28;20068;-70
2021/08/14 05:55:16;;;;;;;36.92;15.85;;;20.00;99.90;;;20.42;79.42;101962.63;5057218;28;20078;-70
2021/08/14 05:57:46;;;;;;;38.15;16.90;;;20.00;99.90;;;20.47;79.44;101959.84;5075376;28;20131;-70
2021/08/14 06:00:15;;;;;;;42.83;17.50;;;20.00;99.90;;;20.46;79.51;101961.63;5074869;28;20115;-70
2021/08/14 06:02:43;;;;;;;44.40;16.02;;;20.10;99.90;;;20.59;79.45;101963.09;5074666;28;20140;-70
2021/08/14 06:05:12;;;;;;;42.70;17.83;;;20.20;99.90;;;20.58;79.33;101963.09;5074635;28;20045;-70
2021/08/14 06:07:41;;;;;;;36.08;16.27;;;20.20;99.90;;;20.61;79.28;101966.56;5074740;28;20083;-70
2021/08/14 06:10:11;;;;;;;36.30;17.40;;;20.20;99.90;;;20.67;79.15;101963.72;5074907;28;20044;-70
2021/08/14 06:12:39;;;;;;;36.78;17.17;;;20.30;99.90;;;20.27;79.06;101889.63;5074796;28;20433;-69
2021/08/14 06:15:10;;;;;;;40.45;17.77;;;20.20;99.90;;;20.73;79.04;101967.19;5074764;28;20032;-70
2021/08/14 06:17:40;;;;;;;40.63;17.75;;;20.30;99.90;;;20.69;78.97;101951.13;5073492;28;20068;-70
2021/08/14 06:20:12;;;;;;;42.40;17.45;;;20.30;99.90;;;20.77;78.84;101966.16;5074670;28;20048;-70
2021/08/14 06:22:41;;;;;;;52.80;19.13;;;20.40;99.90;;;20.57;79.70;101956.88;5074310;28;20037;-70
2021/08/14 06:25:11;;;;;;;37.45;17.58;;;20.30;99.90;;;20.69;79.61;101958.31;5074196;28;20048;-70
2021/08/14 06:27:40;;;;;;;38.20;17.67;;;20.30;99.90;;;20.65;79.72;101979.00;5074147;28;20067;-70
2021/08/14 06:30:12;;;;;;;38.25;16.83;;;20.20;99.90;;;20.62;79.97;101980.91;5073093;28;20048;-70
2021/08/14 06:32:40;;;;;;;40.38;17.60;;;20.20;99.90;;;20.63;80.04;101978.16;5074354;28;20040;-70
2021/08/14 06:35:10;;;;;;;39.50;17.50;;;20.20;99.90;;;20.57;79.97;101978.38;5074154;28;20119;-70
2021/08/14 06:37:41;;;;;;;37.88;17.80;;;20.10;99.90;;;20.54;80.40;101981.13;5073930;28;20588;-70
2021/08/14 06:40:12;;;;;;;42.92;18.60;;;20.10;99.90;;;20.47;80.50;101986.72;5073759;28;20102;-70
2021/08/14 06:42:40;;;;;;;49.70;20.38;;;20.10;99.90;;;20.50;80.73;101997.38;5056043;28;20049;-70
2021/08/14 06:45:12;;;;;;;48.80;19.83;;;20.00;99.90;;;20.43;80.89;101994.00;5074105;28;20033;-70
2021/08/14 06:47:40;;;;;;;45.53;18.25;;;20.00;99.90;;;20.49;81.13;101999.22;5074276;28;20088;-70
2021/08/14 06:50:10;;;;;;;42.08;17.55;;;20.00;99.90;;;20.44;81.18;101997.56;5074037;28;20049;-70
2021/08/14 06:52:38;;;;;;;41.80;18.40;;;20.00;99.90;;;20.45;81.55;102005.59;5073751;28;20037;-70
2021/08/14 06:55:08;;;;;;;45.40;18.85;;;20.00;99.90;;;20.49;81.57;102009.97;5073944;28;20705;-69
2021/08/14 06:57:36;;;;;;;42.38;17.45;;;20.00;99.90;;;20.31;81.74;101967.44;5074018;28;20083;-72
2021/08/14 07:00:07;;;;;;;44.85;17.80;;;20.00;99.90;;;20.42;81.96;102005.66;5073621;28;20128;-71
2021/08/14 07:02:37;;;;;;;;;;;20.00;99.90;;;20.50;81.85;101992.00;5056232;28;20468;-71
2021/08/14 07:05:06;;;;;;;40.22;18.45;;;20.10;99.90;;;20.48;82.11;101989.34;5073322;28;20335;-70
2021/08/14 07:07:35;;;;;;;44.47;17.80;;;20.00;99.90;;;20.32;82.37;101950.41;5072065;28;20102;-70
2021/08/14 07:10:05;;;;;;;41.60;18.33;;;20.10;99.90;;;20.47;82.23;101984.94;5073372;28;20053;-69
2021/08/14 07:12:33;;;;;;;41.88;17.35;;;20.00;99.90;;;18.96;82.10;101721.28;5073393;28;20448;-68
2021/08/14 07:15:02;;;;;;;41.17;18.13;;;20.10;99.90;;;20.39;82.37;101977.97;5073156;28;20056;-71
2021/08/14 07:17:32;;;;;;;44.42;18.55;;;20.10;99.90;;;20.27;82.30;101957.69;5073240;28;20444;-69
2021/08/14 07:20:02;;;;;;;39.53;17.02;;;20.10;99.90;;;20.62;82.41;101989.88;5073180;28;20438;-69
2021/08/14 07:22:33;;;;;;;51.67;19.13;;;20.20;99.90;;;20.62;82.30;101997.03;5055592;28;20402;-71
2021/08/14 07:25:01;;;;;;;47.03;18.38;;;20.20;99.90;;;20.65;82.10;101996.97;5072975;28;20068;-69
2021/08/14 07:27:30;;;;;;;52.13;17.15;;;20.20;99.90;;;20.73;82.08;101988.69;5073158;28;20075;-67
2021/08/14 07:29:58;;;;;;;42.78;17.60;;;20.30;99.90;;;20.68;81.86;101980.75;5055298;28;20052;-71
2021/08/14 07:32:27;;;;;;;42.83;17.92;;;20.30;99.90;;;20.69;81.62;101978.00;5073050;28;20040;-68
2021/08/14 07:34:55;;;;;;;42.42;17.85;;;20.30;99.90;;;20.89;81.79;101984.63;5073032;28;20109;-69
2021/08/14 07:37:25;;;;;;;48.33;16.67;;;20.40;99.90;;;20.95;81.68;101984.44;5073076;28;20036;-70
2021/08/14 07:39:53;;;;;;;47.58;17.88;;;20.50;99.90;;;21.08;81.31;101986.75;5072966;28;20060;-69
2021/08/14 07:42:22;;;;;;;43.15;16.98;;;20.60;99.90;;;21.25;81.26;101979.06;5073083;28;20441;-71
2021/08/14 07:44:50;;;;;;;44.35;16.13;;;20.80;99.90;;;21.34;80.58;101994.06;5072979;28;20045;-68
2021/08/14 07:47:19;;;;;;;46.47;17.42;;;20.90;99.90;;;21.44;79.96;101996.44;5072542;28;20053;-66
2021/08/14 07:49:48;;;;;;;43.60;15.32;;;21.00;99.90;;;21.59;79.55;101997.75;5072800;28;20072;-66
2021/08/14 07:52:16;;;;;;;42.25;15.80;;;21.20;99.90;;;21.77;78.72;101996.28;5072892;28;20131;-68
2021/08/14 07:54:46;;;;;;;36.15;14.70;;;21.30;99.90;;;21.82;78.36;101992.53;5072580;28;20124;-67
2021/08/14 07:57:14;;;;;;;41.08;15.18;;;21.40;99.90;;;21.99;78.13;101979.38;5072890;28;20508;-67
2021/08/14 07:59:43;;;;;;;34.55;14.20;;;21.60;99.90;;;22.19;77.78;101987.66;5055098;28;20546;-74
2021/08/14 08:02:11;;;;;;;45.55;15.65;;;21.70;99.90;;;22.36;76.77;101984.38;5072780;28;20094;-71
2021/08/14 08:04:40;;;;;;;36.60;13.25;;;21.90;99.90;;;22.38;75.56;101990.59;5072533;28;20041;-72
2021/08/14 08:07:08;;;;;;;40.10;14.18;;;22.00;99.90;;;22.42;75.24;101984.16;5072986;28;20044;-68
2021/08/14 08:09:37;;;;;;;30.40;12.27;;;22.00;99.90;;;22.27;74.37;101955.03;5073344;28;20124;-68
2021/08/14 08:12:08;;;;;;;29.08;12.07;;;22.00;99.90;;;22.39;74.40;101985.16;5055025;28;20080;-69
2021/08/14 08:14:37;;;;;;;33.45;12.18;;;21.90;99.90;;;22.45;74.74;101974.13;5072557;28;20072;-69
2021/08/14 08:17:06;;;;;;;31.60;11.60;;;22.00;99.90;;;22.57;73.67;101980.09;5072526;28;20037;-68
2021/08/14 08:19:34;;;;;;;28.40;11.95;;;22.10;99.90;;;22.53;73.71;101959.50;5072656;28;20130;-69
2021/08/14 08:22:03;;;;;;;32.92;12.20;;;22.30;99.90;;;22.61;73.04;101969.09;5072657;28;20079;-68
2021/08/14 08:24:31;;;;;;;31.75;12.45;;;22.30;99.90;;;22.77;73.07;101981.09;5072498;28;20093;-69
2021/08/14 08:27:00;;;;;;;37.95;12.70;;;22.30;99.90;;;22.93;73.56;101990.41;5072498;28;20045;-69
2021/08/14 08:29:29;;;;;;;33.28;11.95;;;22.50;99.90;;;23.03;72.94;101980.13;5072988;28;20102;-69
2021/08/14 08:31:58;;;;;;;33.40;11.80;;;22.60;99.90;;;23.05;71.72;101983.66;5072437;28;20548;-69
2021/08/14 08:34:26;;;;;;;35.33;11.10;;;22.70;99.90;;;23.22;71.09;101973.09;5072477;28;20286;-68
2021/08/14 08:36:55;;;;;;;30.90;11.30;;;22.80;99.90;;;23.46;70.66;101977.53;5072484;28;20045;-68
2021/08/14 08:39:23;;;;;;;27.35;9.93;;;23.00;99.90;;;23.50;69.28;101979.16;5072297;28;20095;-68
2021/08/14 08:41:52;;;;;;;25.65;10.10;;;23.10;99.90;;;23.61;68.43;101978.75;5072377;28;20071;-72
2021/08/14 08:44:20;;;;;;;30.65;10.98;;;23.20;99.90;;;23.56;68.83;101986.16;5072287;28;20045;-71
2021/08/14 08:46:50;;;;;;;22.92;8.40;;;23.20;99.90;;;23.54;67.97;101986.22;5072105;28;20056;-70
2021/08/14 08:49:21;;;;;;;28.70;9.68;;;23.20;99.90;;;23.68;66.67;101981.13;5072269;28;20052;-71
2021/08/14 08:51:49;;;;;;;;;;;23.30;99.90;;;23.86;67.10;101977.69;5072813;28;20043;-70
2021/08/14 08:54:18;;;;;;;24.63;8.55;;;23.50;99.90;;;23.86;65.71;101949.78;5071338;28;19921;-69
2021/08/14 08:56:47;;;;;;;23.05;8.85;;;23.60;99.90;;;22.72;65.22;101732.19;5072305;28;20056;-69
2021/08/14 08:59:15;;;;;;;21.77;8.65;;;23.70;99.90;;;24.25;65.75;101976.97;5072240;28;20044;-64
2021/08/14 09:01:44;;;;;;;25.33;8.10;;;23.80;99.90;;;24.25;64.40;101985.09;5072494;28;20048;-68
2021/08/14 09:04:23;;;;;;;20.40;8.23;;;23.90;99.90;;;24.32;63.18;101979.34;5072783;28;20037;-68
2021/08/14 09:06:52;;;;;;;27.52;8.50;;;23.90;99.90;;;24.34;63.57;101982.84;5074756;28;20047;-69
2021/08/14 09:09:27;;;;;;;19.60;7.78;;;23.90;99.90;;;24.38;61.57;101978.19;5076012;28;20450;-68
2021/08/14 09:12:00;;;;;;;25.38;8.27;;;24.00;99.90;;;23.91;62.04;101897.25;5075801;28;20040;-68
2021/08/14 09:14:29;;;;;;;19.20;7.53;;;24.10;99.90;;;24.49;61.51;101989.41;5075495;28;20512;-73
2021/08/14 09:17:07;;;;;;;25.88;8.43;;;24.10;99.90;;;24.58;61.71;101978.19;5075562;28;20382;-69
2021/08/14 09:19:37;;;;;;;20.48;8.18;;;24.20;99.90;;;24.59;62.12;101991.66;5076006;28;20045;-70
2021/08/14 09:22:20;;;;;;;21.40;7.90;;;24.20;99.90;;;24.40;60.84;101984.41;5075584;28;20041;-70
2021/08/14 09:24:48;;;;;;;20.30;8.40;;;24.00;99.90;;;24.45;61.48;101983.25;5075389;28;20033;-70
2021/08/14 09:27:20;;;;;;;20.23;8.10;;;24.00;99.90;;;24.36;61.31;101978.25;5075298;28;20565;-70
2021/08/14 09:29:48;;;;;;;17.40;7.63;;;24.00;99.90;;;24.47;60.09;101991.31;5075707;28;20135;-69
2021/08/14 09:32:25;;;;;;;16.98;7.93;;;24.10;99.90;;;24.48;60.73;101990.38;5075254;28;20458;-70
2021/08/14 09:34:57;;;;;;;18.85;7.30;;;24.10;99.90;;;24.42;59.98;101996.03;5075494;28;20397;-68
2021/08/14 09:37:36;;;;;;;19.35;7.93;;;24.10;99.90;;;24.59;60.15;101997.06;5075773;28;20044;-68
2021/08/14 09:40:08;;;;;;;18.35;7.47;;;24.20;99.90;;;24.82;58.96;101990.63;5075598;28;20052;-69
2021/08/14 09:42:52;;;;;;;20.02;7.82;;;24.40;99.90;;;24.93;59.98;101988.34;5075192;28;20048;-68
2021/08/14 09:45:22;;;;;;;18.10;8.10;;;24.50;99.90;;;24.85;58.56;101987.81;5057313;28;20461;-65
2021/08/14 09:47:51;;;;;;;22.25;7.43;;;24.50;99.90;;;24.90;58.90;101999.28;5075249;28;20139;-68
2021/08/14 09:50:34;;;;;;;16.95;7.55;;;24.50;99.90;;;25.07;58.70;102003.97;5074949;28;20048;-68
2021/08/14 09:53:11;;;;;;;15.57;7.43;;;24.60;99.90;;;25.14;58.93;101991.88;5075041;28;20593;-70
2021/08/14 09:55:40;;;;;;;19.20;7.63;;;24.70;99.90;;;24.96;58.54;101963.81;5074921;28;20079;-68
2021/08/14 09:58:12;;;;;;;15.80;7.53;;;24.70;99.90;;;25.26;57.71;101997.56;5074744;28;20044;-68
2021/08/14 10:00:42;;;;;;;18.02;7.47;;;24.80;99.90;;;25.00;57.92;101946.47;5075265;28;20045;-68
2021/08/14 10:03:16;;;;;;;17.05;7.32;;;24.90;99.90;;;25.21;58.01;101986.09;5056987;28;20144;-68
2021/08/14 10:05:47;;;;;;;19.13;7.20;;;24.80;99.90;;;25.11;57.72;101989.28;5074948;28;20482;-67
2021/08/14 10:08:15;;;;;;;15.98;7.50;;;24.80;99.90;;;25.03;56.49;101981.53;5074544;28;20041;-70
2021/08/14 10:10:44;;;;;;;17.40;7.28;;;24.70;99.90;;;25.14;57.23;101998.19;5074607;28;20115;-66
2021/08/14 10:13:19;;;;;;;18.27;8.02;;;24.80;99.90;;;25.13;57.38;101985.56;5074749;28;20067;-66